Observations for SYDNEY INTL AIRPORT, Australia (YSSY)

YSSY 100900Z 19019KT 9999 FEW010 SCT120 BKN180 22/20 Q1016 FM0915 18015KT 9999 FEW010 BKN018 INTER 1000/1200 5000 SHRA BKN010   
YSSY 100830Z 19017KT 9999 FEW030 BKN110 BKN190 22/20 Q1015 FM0845 18015KT 9999 FEW010 BKN018
YSSY 100800Z 19018KT 9999 FEW030 SCT120 BKN260 22/19 Q1015 FM0800 18015KT 9999 FEW010 BKN018
YSSY 100730Z 19017KT 9999 FEW040 SCT120 BKN180 22/19 Q1014  
YSSY 100724Z 19015KT 9999 FEW047 BKN130 BKN180 23/19 Q1014
YSSY 100724Z 19015KT 9999 FEW047 BKN130 BKN180 23/19 Q1014 FM0800 18015KT 9999 FEW010 SCT020
YSSY 100700Z 16008KT 9999 FEW047 BKN180 BKN260 23/19 Q1014 FM0800 18015KT 9999 FEW010 SCT020
YSSY 100630Z 07004KT CAVOK 26/17 Q1013 FM0700 12008KT 9999 FEW030 SCT120 FM0800 18015KT 9999 FEW010 SCT020  
YSSY 100600Z 09005KT CAVOK 26/18 Q1013 FM0630 12008KT 9999 FEW030 SCT120 FM0800 18015KT 9999 FEW010 SCT020  
YSSY 100530Z 09007KT CAVOK 26/19 Q1013 FM0700 12008KT 9999 FEW025 SCT120 FM0800 18015KT 9999 FEW010 SCT020  
YSSY 100500Z 07007KT 9999 VCSH FEW025 SCT120 BKN150 25/18 Q1013 FM0700 12008KT 9999 FEW025 SCT120   
YSSY 100430Z 02009KT 9999 -SHRA FEW025 SCT120 BKN140 26/19 Q1013 FM0700 12008KT 9999 FEW025 SCT120  
YSSY 100400Z 02010KT 9999 -RA FEW023 BKN045 BKN100 26/19 Q1014 NOSIG
YSSY 100330Z 06010KT 9999 -DZ FEW025 SCT040 BKN120 26/18 Q1013 NOSIG
YSSY 100300Z 14004KT 9999 FEW030 OVC140 25/18 Q1014 
YSSY 100300Z 14004KT 9999 FEW030 OVC140 25/18 Q1014 NOSIG
YSSY 100230Z 16005KT 9999 FEW040 SCT140 BKN180 26/17 Q1015  
YSSY 100200Z 33003KT 9999 FEW040 SCT140 BKN180 27/16 Q1015 NOSIG
YSSY 100130Z 06004KT 010V070 9999 FEW030 SCT130 BKN140 27/17 Q1015  
YSSY 100100Z 01010KT 9999 FEW030 SCT130 BKN140 26/17 Q1015 NOSIG
YSSY 100030Z 05007KT 9999 FEW020 BKN130 BKN250 26/17 Q1015 NOSIG
YSSY 100000Z 07009KT 9999 FEW020 SCT180 BKN250 25/17 Q1015 NOSIG
YSSY 092330Z 06009KT 9999 FEW020 SCT130 BKN200 26/17 Q1015 NOSIG
YSSY 092300Z 08012KT 9999 FEW020 BKN250 25/18 Q1015 NOSIG   
YSSY 092230Z 11012KT 9999 FEW030 SCT170 BKN250 24/19 Q1016 NOSIG
YSSY 092200Z 15011KT 9999 FEW018 SCT170 BKN250 23/21 Q1016 FM2300 12012KT 9999 FEW030   
YSSY 092130Z 18013KT 9999 FEW018 SCT150 BKN250 22/20 Q1016 FM2130 16015KT 9999 SCT018 FM2200 14012KT 9999 SCT025 FM2300 12012KT 9999 FEW030 
YSSY 092100Z 17013KT 9999 FEW018 SCT140 BKN250 22/19 Q1016 FM2100 16015KT 9999 SCT018 FM2200 14012KT 9999 FEW025
YSSY 092030Z 18015KT 9999 SCT018 BKN140 BKN250 22/19 Q1016 FM2100 16015KT 9999 SCT018 FM2200 12012KT 9999 FEW025
YSSY 092000Z 19012KT 9999 BKN017 BKN025 21/19 Q1015 FM2100 12010KT 9999 SCT015 FM2200 12010KT 9999 FEW015   
YSSY 091930Z 18009KT 9999 BKN015 BKN250 21/19 Q1015 FM2020 12010KT 9999 SCT015  
YSSY 091900Z 15007KT 9999 BKN017 BKN250 21/18 Q1014 FM1950 12010KT 9999 SCT015  
YSSY 091830Z 10003KT 9999 FEW011 BKN015 21/18 Q1014 FM1920 12010KT 9999 SCT015  
YSSY 091830Z 10003KT 9999 FEW011 BKN015 21/18 Q1014
YSSY 091830Z 10003KT 9999 FEW011 BKN015 21/18 Q1014 FM1920 12010KT 9999 SCT015
YSSY 091800Z 07005KT 9999 BKN014 21/18 Q1014
YSSY 091800Z 07005KT 9999 BKN014 21/18 Q1014
YSSY 091800Z 07005KT 9999 BKN014 21/18 Q1014 FM1850 12010KT 9999 SCT015
YSSY 091730Z 06004KT 9999 FEW011 BKN014 21/18 Q1014 FM1820 12010KT 9999 SCT015  
YSSY 091730Z 06004KT 9999 FEW011 BKN014 21/18 Q1014
YSSY 091730Z 06004KT 9999 FEW011 BKN014 21/18 Q1014 FM1820 12010KT 9999 SCT015
YSSY 091700Z 04004KT 9999 BKN012 21/19 Q1014
YSSY 091700Z 04004KT 9999 BKN012 21/19 Q1014
YSSY 091700Z 04004KT 9999 BKN012 21/19 Q1014 FM1750 12010KT 9999 SCT015
YSSY 091630Z 04006KT 9999 BKN012 21/18 Q1014 FM1720 06010KT 9999 FEW015 
YSSY 091630Z 04006KT 9999 BKN012 21/18 Q1014
YSSY 091630Z 04006KT 9999 BKN012 21/18 Q1014 FM1720 06010KT 9999 FEW015
YSSY 091600Z 04008KT 9999 BKN012 21/19 Q1014
YSSY 091600Z 04008KT 9999 BKN012 21/19 Q1014
YSSY 091600Z 04008KT 9999 BKN012 21/19 Q1014 FM1620 06010KT 9999 FEW015
YSSY 091530Z 05009KT 9999 BKN012 22/19 Q1014 FM1620 06010KT 9999 FEW015 
YSSY 091530Z 05009KT 9999 BKN012 22/19 Q1014
YSSY 091530Z 05009KT 9999 BKN012 22/19 Q1014 FM1620 06010KT 9999 FEW015
YSSY 091500Z 06007KT 9999 BKN011 21/19 Q1015
YSSY 091500Z 06007KT 9999 BKN011 21/19 Q1015
YSSY 091500Z 06007KT 9999 BKN011 21/19 Q1015 FM1550 06010KT 9999 FEW015
YSSY 091430Z 06009KT 9999 BKN011 21/19 Q1015 FM1520 06010KT 9999 FEW015 
YSSY 091430Z 06009KT 9999 BKN011 21/19 Q1015
YSSY 091430Z 06009KT 9999 BKN011 21/19 Q1015 FM1520 06010KT 9999 FEW015
YSSY 091400Z 06009KT 9999 BKN013 21/19 Q1015
YSSY 091400Z 06009KT 9999 BKN013 21/19 Q1015
YSSY 091400Z 06009KT 9999 BKN013 21/19 Q1015 NOSIG
YSSY 091330Z 06010KT 9999 BKN013 22/19 Q1016
YSSY 091330Z 06010KT 9999 BKN013 22/19 Q1016
YSSY 091330Z 06010KT 9999 BKN013 22/19 Q1016 NOSIG
YSSY 091300Z 06009KT 9999 SCT012 22/19 Q1016
YSSY 091300Z 06009KT 9999 SCT012 22/19 Q1016
YSSY 091300Z 06009KT 9999 SCT012 22/19 Q1016 NOSIG
YSSY 091230Z 06012KT 9999 BKN013 22/19 Q1016
YSSY 091230Z 06012KT 9999 BKN013 22/19 Q1016
YSSY 091230Z 06012KT 9999 BKN013 22/19 Q1016 FM1250 05010KT 9999 FEW015
YSSY 091200Z 05012KT 9999 BKN013 22/19 Q1016
YSSY 091200Z 05012KT 9999 BKN013 22/19 Q1016
YSSY 091200Z 05012KT 9999 BKN013 22/19 Q1016 FM1250 05010KT 9999 FEW015
YSSY 091130Z 05010KT 9999 BKN013 22/19 Q1016 FM1220 05010KT 9999 FEW015 
YSSY 091130Z 05010KT 9999 BKN013 22/19 Q1016
YSSY 091130Z 05010KT 9999 BKN013 22/19 Q1016 FM1220 05010KT 9999 FEW015
YSSY 091118Z 06011KT 9999 BKN013 23/19 Q1016
YSSY 091118Z 06011KT 9999 BKN013 23/19 Q1016 FM1200 05010KT 9999 FEW015
YSSY 091100Z 06012KT 9999 SCT012 22/19 Q1016 NOSIG  
YSSY 091036Z 07016KT CAVOK 22/19 Q1016
YSSY 091036Z 07016KT CAVOK 22/19 Q1016 NOSIG
YSSY 091000Z 07012KT CAVOK 22/19 Q1016 NOSIG
YSSY 090930Z 08009KT CAVOK 22/19 Q1016 NOSIG
YSSY 090900Z 08009KT CAVOK 22/19 Q1016 NOSIG
YSSY 090830Z 06009KT 9999 FEW016 BKN250 23/19 Q1015 NOSIG